createdAt,value
2018-10-03T00:00:57.785Z,3.20
2018-10-03T00:03:27.091Z,3.73
2018-10-03T00:05:56.381Z,3.83
2018-10-03T00:08:25.748Z,3.53
2018-10-03T00:10:55.080Z,3.77
2018-10-03T00:13:24.496Z,3.33
2018-10-03T00:15:53.798Z,3.70
2018-10-03T00:18:23.344Z,3.30
2018-10-03T00:20:52.824Z,4.07
2018-10-03T00:23:22.240Z,3.23
2018-10-03T00:25:51.520Z,3.20
2018-10-03T00:28:20.868Z,3.63
2018-10-03T00:30:50.307Z,3.10
2018-10-03T00:33:19.628Z,3.97
2018-10-03T00:35:49.188Z,3.67
2018-10-03T00:38:25.440Z,3.20
2018-10-03T00:40:54.979Z,4.07
2018-10-03T00:43:24.697Z,3.43
2018-10-03T00:45:54.174Z,3.93
2018-10-03T00:48:23.666Z,3.83
2018-10-03T00:50:52.957Z,3.63
2018-10-03T00:53:22.254Z,4.13
2018-10-03T00:55:51.687Z,4.20
2018-10-03T00:58:21.133Z,3.70
2018-10-03T01:00:50.907Z,3.50
2018-10-03T01:03:20.205Z,3.70
2018-10-03T01:05:49.509Z,3.80
2018-10-03T01:08:18.782Z,3.67
2018-10-03T01:10:48.143Z,3.60
2018-10-03T01:13:17.510Z,3.43
2018-10-03T01:15:46.902Z,3.63
2018-10-03T01:18:16.447Z,3.30
2018-10-03T01:20:45.710Z,3.13
2018-10-03T01:23:14.975Z,4.00
2018-10-03T01:25:44.417Z,2.97
2018-10-03T01:28:14.175Z,3.20
2018-10-03T01:30:43.561Z,2.90
2018-10-03T01:33:12.956Z,3.43
2018-10-03T01:35:42.497Z,3.30
2018-10-03T01:38:11.941Z,3.80
2018-10-03T01:40:42.220Z,2.80
2018-10-03T01:43:11.949Z,3.53
2018-10-03T01:45:41.403Z,3.43
2018-10-03T01:48:10.867Z,3.80
2018-10-03T01:50:40.207Z,3.57
2018-10-03T01:53:09.580Z,3.20
2018-10-03T01:55:39.058Z,3.60
2018-10-03T01:58:08.431Z,3.93
2018-10-03T02:00:37.808Z,3.60
2018-10-03T02:03:07.110Z,4.13
2018-10-03T02:05:36.631Z,4.10
2018-10-03T02:08:06.478Z,3.33
2018-10-03T02:10:35.923Z,3.63
2018-10-03T02:13:05.338Z,3.53
2018-10-03T02:15:34.808Z,4.43
2018-10-03T02:18:04.220Z,3.93
2018-10-03T02:20:33.674Z,3.63
2018-10-03T02:23:03.099Z,3.57
2018-10-03T02:25:32.588Z,4.00
2018-10-03T02:28:02.292Z,3.43
2018-10-03T02:30:32.020Z,4.00
2018-10-03T02:33:01.394Z,3.80
2018-10-03T02:35:30.907Z,3.80
2018-10-03T02:38:00.281Z,4.10
2018-10-03T02:40:29.799Z,3.63
2018-10-03T02:42:59.056Z,3.93
2018-10-03T02:45:28.370Z,3.57
2018-10-03T02:47:57.927Z,3.80
2018-10-03T02:50:27.468Z,3.50
2018-10-03T02:52:56.879Z,4.90
2018-10-03T02:55:26.777Z,3.87
2018-10-03T02:57:56.158Z,3.97
2018-10-03T03:00:25.498Z,3.70
2018-10-03T03:02:54.824Z,4.17
2018-10-03T03:05:24.168Z,3.50
2018-10-03T03:07:53.581Z,4.10
2018-10-03T03:10:22.941Z,4.30
2018-10-03T03:12:52.367Z,3.90
2018-10-03T03:15:21.765Z,4.00
2018-10-03T03:17:51.111Z,3.53
2018-10-03T03:20:20.769Z,4.03
2018-10-03T03:22:50.134Z,3.80
2018-10-03T03:25:19.549Z,4.40
2018-10-03T03:27:49.352Z,5.00
2018-10-03T03:30:18.883Z,4.33
2018-10-03T03:32:48.410Z,4.43
2018-10-03T03:35:17.828Z,4.67
2018-10-03T03:37:47.298Z,4.17
2018-10-03T03:40:16.895Z,3.70
2018-10-03T03:42:46.425Z,4.50
2018-10-03T03:45:15.942Z,3.97
2018-10-03T03:47:45.528Z,4.00
2018-10-03T03:50:15.139Z,4.47
2018-10-03T03:52:44.795Z,4.37
2018-10-03T03:55:14.119Z,3.93
2018-10-03T03:57:43.495Z,4.90
2018-10-03T04:00:13.045Z,5.10
2018-10-03T04:02:42.477Z,3.90
2018-10-03T04:05:11.928Z,4.20
2018-10-03T04:07:41.315Z,4.07
2018-10-03T04:10:11.221Z,4.17
2018-10-03T04:12:40.843Z,5.13
2018-10-03T04:15:10.121Z,4.50
2018-10-03T04:17:40.306Z,3.80
2018-10-03T04:20:09.899Z,4.60
2018-10-03T04:22:40.075Z,3.50
2018-10-03T04:25:10.857Z,4.23
2018-10-03T04:27:40.274Z,4.53
2018-10-03T04:30:09.541Z,3.63
2018-10-03T04:32:39.254Z,4.47
2018-10-03T04:35:08.529Z,3.80
2018-10-03T04:37:37.766Z,3.60
2018-10-03T04:40:07.208Z,3.90
2018-10-03T04:42:36.443Z,4.77
2018-10-03T04:45:05.764Z,4.10
2018-10-03T04:47:35.015Z,4.00
2018-10-03T04:50:04.356Z,4.53
2018-10-03T04:52:33.779Z,3.90
2018-10-03T04:55:03.146Z,3.90
2018-10-03T04:57:32.438Z,4.00
2018-10-03T05:00:01.678Z,3.80
2018-10-03T05:02:30.931Z,4.20
2018-10-03T05:05:00.172Z,3.63
2018-10-03T05:07:29.432Z,3.37
2018-10-03T05:09:58.724Z,3.90
2018-10-03T05:12:27.978Z,3.60
2018-10-03T05:14:57.319Z,3.63
2018-10-03T05:17:26.586Z,3.63
2018-10-03T05:19:55.880Z,3.80
2018-10-03T05:22:25.110Z,3.63
2018-10-03T05:24:54.364Z,3.53
2018-10-03T05:27:23.564Z,3.70
2018-10-03T05:29:53.515Z,3.20
2018-10-03T05:32:22.747Z,3.50
2018-10-03T05:34:52.043Z,3.60
2018-10-03T05:37:21.307Z,3.53
2018-10-03T05:39:50.578Z,3.30
2018-10-03T05:42:19.845Z,2.97
2018-10-03T05:44:49.231Z,3.50
2018-10-03T05:47:18.528Z,3.87
2018-10-03T05:49:47.783Z,3.20
2018-10-03T05:52:17.088Z,3.10
2018-10-03T05:54:46.480Z,3.80
2018-10-03T05:57:15.816Z,2.90
2018-10-03T05:59:45.192Z,3.20
2018-10-03T06:02:15.468Z,3.03
2018-10-03T06:04:45.244Z,3.57
2018-10-03T06:07:14.580Z,3.00
2018-10-03T06:09:43.856Z,2.73
2018-10-03T06:12:13.099Z,3.00
2018-10-03T06:14:42.423Z,3.33
2018-10-03T06:17:11.732Z,3.10
2018-10-03T06:19:40.991Z,3.03
2018-10-03T06:22:10.395Z,2.80
2018-10-03T06:24:39.656Z,2.60
2018-10-03T06:27:09.067Z,2.90
2018-10-03T06:29:38.437Z,2.80
2018-10-03T06:32:08.187Z,2.60
2018-10-03T06:34:37.496Z,2.70
2018-10-03T06:37:07.056Z,2.77
2018-10-03T06:39:36.431Z,3.17
2018-10-03T06:42:05.632Z,2.97
2018-10-03T06:44:34.965Z,3.23
2018-10-03T06:47:04.478Z,2.83
2018-10-03T06:49:33.782Z,2.60
2018-10-03T06:55:16.316Z,3.40
2018-10-03T07:21:47.955Z,2.97
2018-10-03T07:24:17.640Z,2.77
2018-10-03T07:26:47.009Z,3.03
2018-10-03T07:29:16.338Z,2.47
2018-10-03T07:31:45.636Z,2.50
2018-10-03T07:34:14.895Z,2.57
2018-10-03T07:36:44.261Z,2.40
2018-10-03T07:39:13.593Z,2.90
2018-10-03T07:41:42.848Z,2.83
2018-10-03T07:44:12.234Z,2.50
2018-10-03T07:46:41.535Z,2.40
2018-10-03T07:49:10.887Z,1.90
2018-10-03T07:54:33.990Z,2.33
2018-10-03T07:57:04.733Z,2.50
2018-10-03T07:59:34.034Z,2.33
2018-10-03T08:02:03.444Z,2.53
2018-10-03T08:04:32.745Z,2.60
2018-10-03T08:07:02.125Z,2.40
2018-10-03T08:09:32.773Z,2.57
2018-10-03T08:12:02.154Z,2.40
2018-10-03T08:14:31.464Z,3.13
2018-10-03T08:17:01.297Z,2.10
2018-10-03T08:19:30.548Z,2.33
2018-10-03T08:22:00.031Z,2.67
2018-10-03T08:24:29.441Z,2.30
2018-10-03T08:26:58.951Z,2.67
2018-10-03T08:29:28.568Z,2.63
2018-10-03T08:31:58.215Z,2.97
2018-10-03T08:34:35.864Z,2.40
2018-10-03T08:37:05.701Z,2.23
2018-10-03T08:39:36.110Z,2.70
2018-10-03T08:42:11.836Z,2.30
2018-10-03T08:44:44.007Z,2.10
2018-10-03T08:47:18.264Z,2.13
2018-10-03T08:49:48.137Z,2.53
2018-10-03T08:52:20.097Z,2.07
2018-10-03T08:54:51.881Z,2.47
2018-10-03T08:57:27.409Z,2.50
2018-10-03T09:00:02.250Z,2.13
2018-10-03T09:02:31.857Z,1.93
2018-10-03T09:05:05.812Z,2.13
2018-10-03T09:07:40.745Z,2.07
2018-10-03T09:10:15.425Z,2.10
2018-10-03T09:12:47.503Z,1.80
2018-10-03T09:15:17.313Z,2.33
2018-10-03T09:17:48.357Z,2.50
2018-10-03T09:20:19.148Z,1.83
2018-10-03T09:22:50.608Z,2.00
2018-10-03T09:25:22.119Z,1.80
2018-10-03T09:27:52.948Z,1.50
2018-10-03T09:30:27.432Z,1.60
2018-10-03T09:32:57.627Z,1.57
2018-10-03T09:35:31.081Z,1.73
2018-10-03T09:38:05.511Z,1.90
2018-10-03T09:40:43.209Z,1.50
2018-10-03T09:43:16.168Z,1.60
2018-10-03T09:45:51.830Z,1.80
2018-10-03T09:48:31.584Z,1.87
2018-10-03T09:51:07.116Z,2.03
2018-10-03T09:53:38.396Z,1.77
2018-10-03T09:56:08.620Z,2.30
2018-10-03T09:58:38.897Z,2.37
2018-10-03T10:01:17.839Z,2.20
2018-10-03T10:03:48.792Z,2.50
2018-10-03T10:06:19.419Z,2.07
2018-10-03T10:08:49.431Z,2.13
2018-10-03T10:11:20.774Z,1.97
2018-10-03T10:13:52.217Z,2.40
2018-10-03T10:16:24.834Z,2.50
2018-10-03T10:18:55.656Z,2.20
2018-10-03T10:21:25.796Z,2.20
2018-10-03T10:23:55.315Z,2.30
2018-10-03T10:26:25.373Z,2.20
2018-10-03T10:28:55.262Z,2.40
2018-10-03T10:31:26.385Z,2.13
2018-10-03T10:33:55.884Z,2.77
2018-10-03T10:36:26.005Z,2.50
2018-10-03T10:38:57.440Z,2.97
2018-10-03T10:41:29.493Z,2.67
2018-10-03T10:43:59.152Z,2.13
2018-10-03T10:46:28.390Z,2.53
2018-10-03T10:48:58.685Z,2.83
2018-10-03T10:51:28.084Z,2.73
2018-10-03T10:53:58.171Z,2.37
2018-10-03T10:56:27.581Z,2.43
2018-10-03T10:58:56.906Z,2.43
2018-10-03T11:01:26.217Z,2.63
2018-10-03T11:03:56.003Z,2.20
2018-10-03T11:06:25.396Z,2.27
2018-10-03T11:08:54.644Z,2.17
2018-10-03T11:11:23.955Z,2.50
2018-10-03T11:13:53.612Z,2.30
2018-10-03T11:16:23.011Z,2.27
2018-10-03T11:18:52.328Z,2.60
2018-10-03T11:21:21.626Z,2.57
2018-10-03T11:23:51.092Z,2.40
2018-10-03T11:26:20.270Z,2.20
2018-10-03T11:28:49.557Z,2.23
2018-10-03T11:31:18.865Z,2.00
2018-10-03T11:33:48.159Z,2.00
2018-10-03T11:36:17.428Z,2.57
2018-10-03T11:38:46.755Z,1.77
2018-10-03T11:41:16.122Z,2.10
2018-10-03T11:43:46.130Z,2.03
2018-10-03T11:46:16.856Z,2.13
2018-10-03T11:48:48.499Z,1.90
2018-10-03T11:51:21.060Z,2.30
2018-10-03T11:53:53.770Z,2.10
2018-10-03T11:56:23.220Z,2.27
2018-10-03T11:58:52.571Z,2.30
2018-10-03T12:01:23.895Z,2.80
2018-10-03T12:03:53.248Z,2.53
2018-10-03T12:06:22.566Z,2.30
2018-10-03T12:08:51.776Z,2.60
2018-10-03T12:11:21.452Z,2.87
2018-10-03T12:13:50.761Z,2.70
2018-10-03T12:16:20.768Z,2.47
2018-10-03T12:18:50.165Z,2.43
2018-10-03T12:21:19.965Z,2.50
2018-10-03T12:23:49.301Z,2.53
2018-10-03T12:26:19.593Z,2.77
2018-10-03T12:28:48.913Z,2.33
2018-10-03T12:31:18.228Z,2.83
2018-10-03T12:33:47.606Z,2.57
2018-10-03T12:36:16.879Z,3.03
2018-10-03T12:38:46.207Z,2.60
2018-10-03T12:41:15.484Z,2.90
2018-10-03T12:43:44.743Z,3.20
2018-10-03T12:46:13.989Z,3.30
2018-10-03T12:48:45.356Z,3.60
2018-10-03T12:51:15.318Z,3.57
2018-10-03T12:53:44.744Z,3.43
2018-10-03T12:56:14.175Z,3.10
2018-10-03T12:58:43.436Z,3.53
2018-10-03T13:01:13.233Z,3.20
2018-10-03T13:03:42.547Z,3.80
2018-10-03T13:06:11.748Z,3.30
2018-10-03T13:08:41.481Z,3.40
2018-10-03T13:11:11.718Z,3.33
2018-10-03T13:13:40.997Z,3.07
2018-10-03T13:16:10.915Z,3.83
2018-10-03T13:18:40.244Z,2.60
2018-10-03T13:21:09.751Z,3.10
2018-10-03T13:23:39.121Z,3.10
2018-10-03T13:26:08.531Z,2.90
2018-10-03T13:28:37.822Z,2.50
2018-10-03T13:31:07.151Z,2.50
2018-10-03T13:33:36.458Z,2.40
2018-10-03T13:36:05.751Z,2.37
2018-10-03T13:38:35.279Z,2.70
2018-10-03T13:41:04.645Z,2.40
2018-10-03T13:43:34.132Z,2.30
2018-10-03T13:46:03.438Z,2.23
2018-10-03T13:48:32.824Z,2.03
2018-10-03T13:51:02.150Z,2.10
2018-10-03T13:53:31.616Z,2.37
2018-10-03T13:56:01.013Z,2.17
2018-10-03T13:58:30.356Z,2.73
2018-10-03T14:00:59.758Z,2.30
2018-10-03T14:03:29.244Z,2.90
2018-10-03T14:05:58.572Z,3.17
2018-10-03T14:08:27.952Z,3.00
2018-10-03T14:10:57.313Z,3.17
2018-10-03T14:13:26.817Z,3.70
2018-10-03T14:15:56.167Z,3.57
2018-10-03T14:18:25.967Z,3.20
2018-10-03T14:20:55.373Z,3.30
2018-10-03T14:23:24.902Z,3.10
2018-10-03T14:25:54.385Z,2.53
2018-10-03T14:28:23.713Z,3.20
2018-10-03T14:30:53.116Z,3.90
2018-10-03T14:33:22.625Z,3.47
2018-10-03T14:35:51.937Z,3.50
2018-10-03T14:38:21.319Z,3.67
2018-10-03T14:40:50.741Z,4.00
2018-10-03T14:43:21.531Z,2.80
2018-10-03T14:45:51.114Z,3.20
2018-10-03T14:48:20.488Z,3.00
2018-10-03T14:50:49.791Z,3.50
2018-10-03T14:53:19.097Z,3.73
2018-10-03T14:55:48.846Z,3.30
2018-10-03T14:58:18.257Z,3.80
2018-10-03T15:00:47.639Z,3.60
2018-10-03T15:03:17.103Z,3.40
2018-10-03T15:05:46.502Z,3.33
2018-10-03T15:08:15.963Z,3.40
2018-10-03T15:10:45.325Z,3.37
2018-10-03T15:13:14.729Z,3.70
2018-10-03T15:15:44.005Z,3.23
2018-10-03T15:18:13.419Z,4.17
2018-10-03T15:20:42.712Z,3.00
2018-10-03T15:23:12.090Z,3.60
2018-10-03T15:25:41.492Z,3.33
2018-10-03T15:28:11.078Z,3.40
2018-10-03T15:30:40.423Z,3.63
2018-10-03T15:33:09.783Z,3.50
2018-10-03T15:35:39.131Z,3.20
2018-10-03T15:38:08.424Z,3.83
2018-10-03T15:40:38.020Z,4.23
2018-10-03T15:43:08.087Z,4.73
2018-10-03T15:45:37.518Z,6.70
2018-10-03T15:48:07.288Z,6.90
2018-10-03T15:50:37.176Z,6.30
2018-10-03T15:53:06.532Z,6.47
2018-10-03T15:55:35.862Z,6.43
2018-10-03T15:58:05.342Z,6.20
2018-10-03T16:00:35.715Z,5.30
2018-10-03T16:05:47.370Z,4.37
2018-10-03T16:08:25.101Z,3.40
2018-10-03T16:11:05.399Z,3.73
2018-10-03T16:13:38.294Z,3.17
2018-10-03T16:21:28.658Z,3.60
2018-10-03T16:24:05.252Z,3.37
2018-10-03T16:26:34.643Z,3.13
2018-10-03T16:29:04.034Z,3.87
2018-10-03T16:31:33.423Z,3.37
2018-10-03T16:34:02.840Z,3.70
2018-10-03T16:36:32.224Z,3.60
2018-10-03T16:39:01.771Z,3.07
2018-10-03T16:41:31.735Z,2.33
2018-10-03T16:44:01.052Z,3.60
2018-10-03T16:46:30.423Z,3.00
2018-10-03T16:48:59.836Z,2.77
2018-10-03T16:51:29.111Z,3.67
2018-10-03T16:53:58.380Z,3.47
2018-10-03T16:56:27.872Z,2.70
2018-10-03T16:58:57.913Z,2.80
2018-10-03T17:01:29.351Z,3.70
2018-10-03T17:03:58.693Z,3.10
2018-10-03T17:06:28.170Z,3.07
2018-10-03T17:08:57.454Z,3.40
2018-10-03T17:11:27.176Z,2.80
2018-10-03T17:14:21.265Z,3.30
2018-10-03T17:16:51.388Z,3.10
2018-10-03T17:19:20.873Z,3.17
2018-10-03T17:21:51.203Z,3.50
2018-10-03T17:24:21.453Z,3.23
2018-10-03T17:26:50.780Z,3.60
2018-10-03T17:29:20.066Z,4.30
2018-10-03T17:31:49.322Z,3.43
2018-10-03T17:34:19.391Z,3.83
2018-10-03T17:36:50.169Z,3.07
2018-10-03T17:39:20.033Z,3.53
2018-10-03T17:41:49.463Z,3.50
2018-10-03T17:44:20.130Z,4.00
2018-10-03T17:46:51.555Z,4.00
2018-10-03T17:49:21.258Z,4.20
2018-10-03T17:51:50.867Z,5.07
2018-10-03T17:54:20.540Z,5.07
2018-10-03T17:56:50.205Z,4.10
2018-10-03T17:59:20.272Z,4.57
2018-10-03T18:01:55.112Z,4.10
2018-10-03T18:04:25.044Z,4.80
2018-10-03T18:06:55.372Z,5.17
2018-10-03T18:09:25.240Z,4.73
2018-10-03T18:11:55.160Z,4.40
2018-10-03T18:14:25.473Z,5.50
2018-10-03T18:16:57.350Z,5.93
2018-10-03T18:19:26.962Z,5.13
2018-10-03T18:21:56.921Z,4.83
2018-10-03T18:24:26.684Z,4.77
2018-10-03T18:26:56.482Z,5.10
2018-10-03T18:29:30.236Z,4.83
2018-10-03T18:32:05.760Z,4.17
2018-10-03T18:34:39.849Z,4.87
2018-10-03T18:37:12.297Z,4.50
2018-10-03T18:39:45.443Z,4.07
2018-10-03T18:42:15.332Z,5.40
2018-10-03T18:44:45.544Z,6.10
2018-10-03T18:47:18.275Z,5.57
2018-10-03T18:49:54.630Z,5.00
2018-10-03T18:52:25.009Z,5.10
2018-10-03T18:54:55.126Z,5.50
2018-10-03T18:57:24.617Z,5.50
2018-10-03T18:59:54.340Z,6.77
2018-10-03T19:02:24.401Z,7.07
2018-10-03T19:04:53.951Z,6.60
2018-10-03T19:07:23.773Z,6.70
2018-10-03T19:09:53.452Z,6.40
2018-10-03T19:12:23.274Z,5.70
2018-10-03T19:14:52.913Z,6.90
2018-10-03T19:17:22.855Z,6.70
2018-10-03T19:19:52.709Z,7.63
2018-10-03T19:22:23.201Z,10.70
2018-10-03T19:24:52.980Z,15.27
2018-10-03T19:27:22.652Z,13.83
2018-10-03T19:29:52.331Z,14.10
2018-10-03T19:32:22.148Z,12.20
2018-10-03T19:34:53.923Z,11.60
2018-10-03T19:40:38.037Z,10.03
2018-10-03T19:43:07.846Z,10.73
2018-10-03T19:45:38.229Z,9.00
2018-10-03T19:48:08.394Z,8.87
2018-10-03T19:50:38.163Z,9.20
2018-10-03T19:53:08.176Z,8.57
2018-10-03T19:55:37.782Z,7.97
2018-10-03T19:58:07.699Z,8.27
2018-10-03T20:00:37.554Z,7.93
2018-10-03T20:03:07.463Z,7.07
2018-10-03T20:05:37.411Z,8.60
2018-10-03T20:08:07.212Z,7.87
2018-10-03T20:10:39.385Z,8.00
2018-10-03T20:13:09.350Z,8.00
2018-10-03T20:15:39.118Z,8.20
2018-10-03T20:18:09.125Z,7.60
2018-10-03T20:20:39.225Z,8.13
2018-10-03T20:23:09.053Z,8.80
2018-10-03T20:25:38.909Z,8.90
2018-10-03T20:28:08.709Z,10.83
2018-10-03T20:30:38.565Z,10.40
2018-10-03T20:33:08.483Z,9.90
2018-10-03T20:35:41.337Z,9.00
2018-10-03T20:38:11.726Z,9.10
2018-10-03T20:40:41.995Z,9.50
2018-10-03T20:43:12.983Z,9.07
2018-10-03T20:45:42.789Z,7.90
2018-10-03T20:48:12.697Z,9.63
2018-10-03T20:50:42.449Z,7.67
2018-10-03T20:53:12.430Z,8.33
2018-10-03T20:55:43.512Z,8.67
2018-10-03T20:58:12.887Z,10.10
2018-10-03T21:00:42.239Z,10.10
2018-10-03T21:03:11.675Z,9.30
2018-10-03T21:05:41.096Z,8.70
2018-10-03T21:08:10.495Z,8.57
2018-10-03T21:10:39.821Z,7.73
2018-10-03T21:13:09.373Z,8.37
2018-10-03T21:15:38.727Z,8.40
2018-10-03T21:18:08.070Z,8.07
2018-10-03T21:20:37.837Z,7.80
2018-10-03T21:23:08.011Z,7.90
2018-10-03T21:25:37.841Z,8.60
2018-10-03T21:28:07.582Z,8.20
2018-10-03T21:30:37.629Z,8.20
2018-10-03T21:33:07.800Z,8.57
2018-10-03T21:35:37.779Z,9.10
2018-10-03T21:38:07.879Z,8.80
2018-10-03T21:40:37.827Z,9.20
2018-10-03T21:43:09.499Z,9.00
2018-10-03T21:45:39.525Z,9.53
2018-10-03T21:48:10.052Z,9.73
2018-10-03T21:50:40.069Z,9.67
2018-10-03T21:53:09.980Z,9.77
2018-10-03T21:55:39.922Z,9.20
2018-10-03T21:58:09.636Z,9.80
2018-10-03T22:00:44.326Z,9.83
2018-10-03T22:03:14.200Z,9.07
2018-10-03T22:05:43.933Z,8.13
2018-10-03T22:08:13.776Z,8.93
2018-10-03T22:10:43.460Z,8.77
2018-10-03T22:13:13.362Z,9.10
2018-10-03T22:15:43.346Z,8.50
2018-10-03T22:18:12.969Z,8.20
2018-10-03T22:20:42.626Z,7.53
2018-10-03T22:23:12.650Z,8.07
2018-10-03T22:25:42.463Z,8.17
2018-10-03T22:28:11.898Z,8.13
2018-10-03T22:30:41.249Z,9.33
2018-10-03T22:33:10.608Z,8.07
2018-10-03T22:35:39.879Z,8.77
2018-10-03T22:38:09.193Z,8.50
2018-10-03T22:40:38.549Z,8.33
2018-10-03T22:43:07.901Z,9.57
2018-10-03T22:45:37.185Z,8.70
2018-10-03T22:48:06.536Z,8.60
2018-10-03T22:50:35.814Z,8.87
2018-10-03T22:53:05.112Z,10.10
2018-10-03T22:55:34.359Z,8.43
2018-10-03T22:58:03.648Z,8.50
2018-10-03T23:00:32.949Z,8.57
2018-10-03T23:03:02.240Z,9.63
2018-10-03T23:05:31.554Z,8.93
2018-10-03T23:08:00.914Z,10.10
2018-10-03T23:10:30.134Z,8.93
2018-10-03T23:12:59.405Z,9.30
2018-10-03T23:15:28.655Z,9.97
2018-10-03T23:17:58.411Z,10.30
2018-10-03T23:20:27.742Z,10.93
2018-10-03T23:22:57.028Z,9.40
2018-10-03T23:25:26.352Z,9.67
2018-10-03T23:27:55.544Z,9.30
2018-10-03T23:30:24.851Z,8.70
2018-10-03T23:32:54.120Z,9.53
2018-10-03T23:35:23.348Z,10.57
2018-10-03T23:37:52.658Z,10.00
2018-10-03T23:40:22.000Z,11.23
2018-10-03T23:42:51.274Z,10.70
2018-10-03T23:45:20.629Z,10.83
2018-10-03T23:47:50.033Z,10.13
2018-10-03T23:50:19.411Z,11.13
2018-10-03T23:52:48.668Z,9.80
2018-10-03T23:55:17.947Z,9.10
2018-10-03T23:57:47.186Z,9.27
